Time;durP1;ratioP1;P1;durP2;ratioP2;P2;SDS_P1;SDS_P2;PMS_P1;PMS_P2;Temp;Humidity;BMP_temperature;BMP_pressure;BME280_temperature;BME280_humidity;BME280_pressure;Samples;Min_cycle;Max_cycle;Signal;HPM_P1;HPM_P2
2022/06/10 00:02:21;;;;;;;8.50;3.05;;;;;;;;;;5091491;28;20562;-78
2022/06/10 00:04:47;;;;;;;7.97;3.30;;;;;;;;;;5084053;28;20127;-78
2022/06/10 00:07:13;;;;;;;10.70;3.17;;;;;;;;;;5084694;28;20044;-78
2022/06/10 00:09:39;;;;;;;9.82;3.22;;;;;;;;;;5095908;28;20048;-78
2022/06/10 00:12:06;;;;;;;11.50;3.00;;;;;;;;;;5093496;28;20042;-78
2022/06/10 00:14:32;;;;;;;7.97;3.45;;;;;;;;;;5069186;28;20498;-78
2022/06/10 00:16:58;;;;;;;7.07;3.30;;;;;;;;;;5086984;28;20039;-78
2022/06/10 00:19:24;;;;;;;6.68;2.90;;;;;;;;;;5093166;28;20044;-78
2022/06/10 00:21:50;;;;;;;7.70;3.13;;;;;;;;;;5080732;28;20044;-79
2022/06/10 00:24:18;;;;;;;10.05;3.50;;;;;;;;;;5097874;28;20043;-78
2022/06/10 00:26:45;;;;;;;10.10;3.33;;;;;;;;;;5089944;28;20031;-78
2022/06/10 00:29:11;;;;;;;8.85;3.22;;;;;;;;;;5087500;28;20388;-78
2022/06/10 00:31:37;;;;;;;9.70;3.53;;;;;;;;;;5089267;28;20052;-78
2022/06/10 00:34:03;;;;;;;9.50;3.28;;;;;;;;;;5099084;28;20047;-78
2022/06/10 00:36:29;;;;;;;9.10;3.13;;;;;;;;;;5076589;28;20043;-78
2022/06/10 00:38:55;;;;;;;10.73;3.83;;;;;;;;;;5078795;28;20409;-78
2022/06/10 00:41:21;;;;;;;9.38;3.40;;;;;;;;;;5079276;28;20097;-78
2022/06/10 00:43:47;;;;;;;8.43;3.25;;;;;;;;;;5097089;28;20506;-78
2022/06/10 00:46:22;;;;;;;9.35;3.08;;;;;;;;;;5091734;28;20123;-78
2022/06/10 00:49:00;;;;;;;11.90;3.70;;;;;;;;;;5100920;28;20051;-78
2022/06/10 00:51:49;;;;;;;10.60;3.25;;;;;;;;;;5089808;28;20044;-78
2022/06/10 00:54:31;;;;;;;10.57;3.20;;;;;;;;;;5064807;28;20055;-78
2022/06/10 00:57:13;;;;;;;9.65;3.50;;;;;;;;;;5064646;28;20041;-78
2022/06/10 00:59:41;;;;;;;8.77;3.58;;;;;;;;;;5065213;28;20746;-78
2022/06/10 01:02:17;;;;;;;12.77;3.60;;;;;;;;;;5090511;28;20046;-78
2022/06/10 01:04:44;;;;;;;14.07;3.67;;;;;;;;;;5093769;28;20044;-78
2022/06/10 01:07:11;;;;;;;10.75;3.47;;;;;;;;;;5088893;28;20039;-78
2022/06/10 01:09:37;;;;;;;12.23;3.92;;;;;;;;;;5087939;28;20051;-78
2022/06/10 01:12:03;;;;;;;9.80;3.35;;;;;;;;;;5088440;28;20044;-79
2022/06/10 01:14:39;;;;;;;10.75;3.55;;;;;;;;;;5087947;28;20116;-79
2022/06/10 01:17:20;;;;;;;14.88;4.15;;;;;;;;;;5088477;28;20044;-79
2022/06/10 01:19:46;;;;;;;13.02;3.42;;;;;;;;;;5068293;28;20090;-78
2022/06/10 01:22:28;;;;;;;9.27;3.95;;;;;;;;;;5092864;28;20044;-79
2022/06/10 01:25:03;;;;;;;9.35;3.60;;;;;;;;;;5082157;28;20071;-79
2022/06/10 01:27:48;;;;;;;10.57;3.53;;;;;;;;;;5058158;28;20057;-78
2022/06/10 01:30:30;;;;;;;9.30;3.22;;;;;;;;;;5088546;28;20063;-78
2022/06/10 01:33:18;;;;;;;10.02;3.30;;;;;;;;;;5088465;28;20394;-78
2022/06/10 01:36:03;;;;;;;9.07;3.55;;;;;;;;;;5089776;28;20032;-79
2022/06/10 01:38:47;;;;;;;10.18;3.38;;;;;;;;;;5084106;28;20139;-78
2022/06/10 01:41:22;;;;;;;12.23;3.20;;;;;;;;;;5083392;28;20132;-78
2022/06/10 01:43:57;;;;;;;13.90;3.90;;;;;;;;;;5083058;28;20048;-78
2022/06/10 01:46:25;;;;;;;10.02;3.60;;;;;;;;;;5094958;28;20039;-78
2022/06/10 01:48:57;;;;;;;10.35;3.42;;;;;;;;;;5086013;28;20036;-78
2022/06/10 01:51:36;;;;;;;11.48;3.25;;;;;;;;;;5068918;28;20123;-78
2022/06/10 01:54:06;;;;;;;12.07;3.53;;;;;;;;;;5080258;28;20134;-78
2022/06/10 01:56:35;;;;;;;11.55;3.45;;;;;;;;;;5086939;28;20076;-78
2022/06/10 01:59:08;;;;;;;8.98;3.17;;;;;;;;;;5089172;28;20541;-78
2022/06/10 02:01:43;;;;;;;12.20;3.47;;;;;;;;;;5086219;28;20486;-78
2022/06/10 02:04:12;;;;;;;11.27;3.30;;;;;;;;;;5088430;28;20078;-78
2022/06/10 02:06:42;;;;;;;12.38;3.40;;;;;;;;;;5067996;28;20080;-78
2022/06/10 02:09:10;;;;;;;9.80;3.50;;;;;;;;;;5070116;28;20044;-78
2022/06/10 02:11:38;;;;;;;11.57;3.30;;;;;;;;;;5087734;28;20044;-79
2022/06/10 02:14:09;;;;;;;8.88;3.20;;;;;;;;;;5088608;28;20474;-79
2022/06/10 02:16:37;;;;;;;11.45;3.38;;;;;;;;;;5076339;28;20047;-78
2022/06/10 02:19:24;;;;;;;9.50;3.40;;;;;;;;;;5075571;28;20051;-78
2022/06/10 02:21:56;;;;;;;11.07;3.05;;;;;;;;;;5096627;28;20083;-78
2022/06/10 02:24:25;;;;;;;9.98;3.35;;;;;;;;;;5084227;28;20047;-78
2022/06/10 02:26:53;;;;;;;10.68;3.25;;;;;;;;;;5080215;28;20052;-78
2022/06/10 02:29:20;;;;;;;8.02;3.20;;;;;;;;;;5086305;28;20067;-78
2022/06/10 02:31:55;;;;;;;11.00;3.33;;;;;;;;;;5064242;28;20059;-78
2022/06/10 02:34:21;;;;;;;8.57;3.22;;;;;;;;;;5085666;28;20062;-78
2022/06/10 02:36:57;;;;;;;11.98;3.25;;;;;;;;;;5087721;28;20041;-78
2022/06/10 02:39:31;;;;;;;8.40;2.90;;;;;;;;;;5075408;28;20040;-78
2022/06/10 02:42:16;;;;;;;11.93;3.22;;;;;;;;;;5064288;28;20044;-78
2022/06/10 02:44:49;;;;;;;9.38;3.05;;;;;;;;;;5089984;28;20048;-78
2022/06/10 02:47:34;;;;;;;6.22;3.03;;;;;;;;;;5089004;28;20127;-78
2022/06/10 02:50:00;;;;;;;11.82;3.50;;;;;;;;;;5089406;28;20079;-78
2022/06/10 02:52:28;;;;;;;7.65;3.30;;;;;;;;;;5089764;28;20123;-78
2022/06/10 02:54:54;;;;;;;11.23;3.33;;;;;;;;;;5072010;28;20178;-78
2022/06/10 02:57:23;;;;;;;11.50;3.58;;;;;;;;;;5094381;28;20040;-78
2022/06/10 03:02:38;;;;;;;11.93;3.53;;;;;;;;;;5089093;28;20115;-79
2022/06/10 03:05:07;;;;;;;10.75;3.40;;;;;;;;;;5092457;28;20147;-78
2022/06/10 03:07:36;;;;;;;13.10;3.90;;;;;;;;;;5089435;28;20040;-78
2022/06/10 03:10:17;;;;;;;10.75;3.58;;;;;;;;;;5086052;28;20226;-78
2022/06/10 03:12:58;;;;;;;9.43;3.45;;;;;;;;;;5080632;28;20531;-78
2022/06/10 03:15:23;;;;;;;11.05;3.50;;;;;;;;;;5091707;28;20051;-78
2022/06/10 03:17:59;;;;;;;9.07;3.85;;;;;;;;;;5092875;28;20040;-78
2022/06/10 03:20:28;;;;;;;7.32;3.63;;;;;;;;;;5087588;28;20036;-78
2022/06/10 03:23:03;;;;;;;9.30;4.03;;;;;;;;;;5092725;28;20046;-78
2022/06/10 03:25:34;;;;;;;7.70;3.00;;;;;;;;;;5082380;28;20048;-78
2022/06/10 03:28:03;;;;;;;11.32;3.58;;;;;;;;;;5079586;28;20037;-78
2022/06/10 03:30:32;;;;;;;8.38;3.10;;;;;;;;;;5075685;28;20067;-79
2022/06/10 03:33:04;;;;;;;11.13;3.42;;;;;;;;;;5087268;28;20048;-78
2022/06/10 03:35:53;;;;;;;10.07;3.50;;;;;;;;;;5070189;28;20135;-78
2022/06/10 03:38:20;;;;;;;12.45;3.03;;;;;;;;;;5061119;28;20063;-78
2022/06/10 03:40:53;;;;;;;9.48;3.63;;;;;;;;;;5088520;28;20076;-78
2022/06/10 03:43:19;;;;;;;7.43;3.47;;;;;;;;;;5084097;28;20040;-79
2022/06/10 03:45:50;;;;;;;11.95;3.50;;;;;;;;;;5088512;28;20062;-78
2022/06/10 03:48:18;;;;;;;9.50;3.58;;;;;;;;;;5087321;28;20042;-78
2022/06/10 03:50:44;;;;;;;8.25;3.45;;;;;;;;;;5088644;28;20048;-78
2022/06/10 03:53:14;;;;;;;7.30;3.10;;;;;;;;;;5092291;28;20088;-79
2022/06/10 03:55:40;;;;;;;10.68;3.20;;;;;;;;;;5095341;28;20047;-78
2022/06/10 03:58:06;;;;;;;11.60;3.50;;;;;;;;;;5079965;28;20498;-78
2022/06/10 04:00:32;;;;;;;10.65;3.22;;;;;;;;;;5081338;28;20032;-78
2022/06/10 04:02:58;;;;;;;9.85;3.03;;;;;;;;;;5087999;28;20043;-78
2022/06/10 04:05:24;;;;;;;9.88;3.30;;;;;;;;;;5107914;28;20051;-79
2022/06/10 04:07:51;;;;;;;10.40;3.28;;;;;;;;;;5095111;28;20083;-78
2022/06/10 04:10:18;;;;;;;13.93;3.88;;;;;;;;;;5061045;28;20063;-79
2022/06/10 04:12:45;;;;;;;10.95;2.97;;;;;;;;;;5073542;28;20120;-79
2022/06/10 04:15:15;;;;;;;10.52;3.50;;;;;;;;;;5102637;28;20050;-79
2022/06/10 04:17:45;;;;;;;8.27;3.05;;;;;;;;;;5075615;28;20487;-78
2022/06/10 04:20:31;;;;;;;7.32;3.03;;;;;;;;;;5070993;28;20047;-79
2022/06/10 04:22:57;;;;;;;8.63;2.65;;;;;;;;;;5091209;28;20042;-78
2022/06/10 04:25:24;;;;;;;10.43;3.00;;;;;;;;;;5092988;28;20051;-79
2022/06/10 04:27:50;;;;;;;11.00;3.45;;;;;;;;;;5054656;28;20052;-78
2022/06/10 04:30:48;;;;;;;9.88;3.28;;;;;;;;;;5089126;28;20078;-78
2022/06/10 04:33:15;;;;;;;9.57;3.10;;;;;;;;;;5030127;28;20064;-79
2022/06/10 04:35:42;;;;;;;10.73;3.17;;;;;;;;;;5055532;28;20049;-78
2022/06/10 04:38:08;;;;;;;8.60;2.92;;;;;;;;;;5078957;28;20052;-78
2022/06/10 04:40:35;;;;;;;8.90;3.60;;;;;;;;;;5091062;28;20053;-78
2022/06/10 04:43:02;;;;;;;9.27;3.47;;;;;;;;;;5089814;28;20052;-78
2022/06/10 04:45:29;;;;;;;9.10;3.33;;;;;;;;;;5075448;28;20040;-78
2022/06/10 04:47:55;;;;;;;9.75;3.30;;;;;;;;;;5087393;28;20078;-78
2022/06/10 04:50:23;;;;;;;10.25;3.25;;;;;;;;;;5091159;28;20040;-79
2022/06/10 04:52:49;;;;;;;7.35;3.40;;;;;;;;;;5089394;28;20522;-78
2022/06/10 04:55:15;;;;;;;7.13;3.58;;;;;;;;;;5089421;28;20048;-79
2022/06/10 04:57:41;;;;;;;9.52;3.30;;;;;;;;;;5074901;28;20048;-78
2022/06/10 05:00:09;;;;;;;8.77;3.10;;;;;;;;;;5074047;28;20035;-78
2022/06/10 05:02:35;;;;;;;7.72;3.35;;;;;;;;;;5072733;28;20097;-79
2022/06/10 05:05:02;;;;;;;7.97;3.20;;;;;;;;;;5086591;28;20510;-79
2022/06/10 05:07:28;;;;;;;8.18;3.47;;;;;;;;;;5086125;28;20081;-79
2022/06/10 05:09:54;;;;;;;8.80;3.53;;;;;;;;;;5081106;28;20047;-79
2022/06/10 05:12:20;;;;;;;12.40;5.30;;;;;;;;;;5084169;28;20055;-79
2022/06/10 05:14:47;;;;;;;7.65;3.50;;;;;;;;;;5075933;28;20052;-79
2022/06/10 05:17:13;;;;;;;9.50;3.55;;;;;;;;;;5072106;28;20040;-79
2022/06/10 05:19:39;;;;;;;8.73;3.42;;;;;;;;;;5066069;28;20513;-79
2022/06/10 05:22:05;;;;;;;8.35;3.08;;;;;;;;;;5081562;28;20044;-78
2022/06/10 05:24:31;;;;;;;9.02;3.53;;;;;;;;;;5080022;28;20051;-78
2022/06/10 05:26:57;;;;;;;11.63;3.53;;;;;;;;;;5087438;28;20040;-79
2022/06/10 05:29:23;;;;;;;10.90;4.13;;;;;;;;;;5088036;28;20070;-78
2022/06/10 05:31:49;;;;;;;12.05;4.35;;;;;;;;;;5081904;28;20141;-78
2022/06/10 05:36:59;;;;;;;9.25;3.67;;;;;;;;;;5067011;28;20569;-79
2022/06/10 05:39:25;;;;;;;13.25;5.82;;;;;;;;;;5078805;28;20086;-79
2022/06/10 05:42:07;;;;;;;12.10;4.55;;;;;;;;;;5075681;28;20047;-79
2022/06/10 05:44:38;;;;;;;9.55;4.28;;;;;;;;;;5083371;28;20079;-79
2022/06/10 05:47:06;;;;;;;7.97;4.07;;;;;;;;;;5085669;28;20126;-78
2022/06/10 05:49:33;;;;;;;7.57;3.97;;;;;;;;;;5088398;28;20425;-79
2022/06/10 05:51:59;;;;;;;9.80;4.40;;;;;;;;;;5073553;28;20157;-79
2022/06/10 05:54:25;;;;;;;9.98;4.28;;;;;;;;;;5071441;28;20054;-79
2022/06/10 05:56:51;;;;;;;10.13;4.10;;;;;;;;;;5083895;28;20132;-78
2022/06/10 05:59:18;;;;;;;9.10;4.40;;;;;;;;;;5089165;28;20054;-78
2022/06/10 06:01:45;;;;;;;8.10;4.32;;;;;;;;;;5090096;28;20040;-79
2022/06/10 06:04:11;;;;;;;7.45;3.38;;;;;;;;;;5066399;28;20044;-79
2022/06/10 06:06:37;;;;;;;7.70;3.38;;;;;;;;;;5087306;28;20097;-79
2022/06/10 06:09:03;;;;;;;5.03;3.00;;;;;;;;;;5086435;28;20518;-79
2022/06/10 06:11:29;;;;;;;5.28;3.05;;;;;;;;;;5090510;28;20071;-79
2022/06/10 06:13:58;;;;;;;4.32;3.10;;;;;;;;;;5063250;28;20117;-79
2022/06/10 06:16:24;;;;;;;4.05;3.30;;;;;;;;;;5089452;28;20056;-79
2022/06/10 06:18:51;;;;;;;5.18;3.30;;;;;;;;;;5073677;28;20055;-78
2022/06/10 06:21:20;;;;;;;6.15;3.60;;;;;;;;;;5084199;28;20069;-79
2022/06/10 06:23:46;;;;;;;7.70;3.80;;;;;;;;;;5075854;28;20529;-78
2022/06/10 06:26:15;;;;;;;6.65;3.42;;;;;;;;;;5084144;28;20048;-78
2022/06/10 06:28:42;;;;;;;3.67;3.08;;;;;;;;;;5065620;28;20458;-78
2022/06/10 06:31:08;;;;;;;3.67;3.30;;;;;;;;;;5085292;28;20048;-78
2022/06/10 06:33:34;;;;;;;5.55;4.10;;;;;;;;;;5085603;28;20352;-76
2022/06/10 06:36:01;;;;;;;4.47;3.50;;;;;;;;;;5081257;28;20111;-79
2022/06/10 06:38:28;;;;;;;4.97;3.67;;;;;;;;;;5058246;28;20149;-79
2022/06/10 06:40:54;;;;;;;5.28;4.03;;;;;;;;;;5076329;28;20229;-79
2022/06/10 06:43:20;;;;;;;5.25;4.00;;;;;;;;;;5086124;28;20048;-78
2022/06/10 06:45:46;;;;;;;5.63;3.75;;;;;;;;;;5081604;28;20051;-78
2022/06/10 06:48:13;;;;;;;5.90;3.67;;;;;;;;;;5086468;28;20483;-79
2022/06/10 06:50:47;;;;;;;7.03;3.85;;;;;;;;;;5064556;28;20040;-79
2022/06/10 06:53:13;;;;;;;5.85;4.10;;;;;;;;;;5083881;28;20463;-79
2022/06/10 06:55:41;;;;;;;7.35;4.07;;;;;;;;;;5084837;28;20119;-79
2022/06/10 06:58:08;;;;;;;6.20;4.60;;;;;;;;;;5088991;28;20101;-79
2022/06/10 07:00:34;;;;;;;6.88;4.95;;;;;;;;;;5085263;28;20055;-77
2022/06/10 07:03:00;;;;;;;9.25;5.13;;;;;;;;;;5085583;28;20127;-78
2022/06/10 07:05:26;;;;;;;7.63;5.25;;;;;;;;;;5088304;28;20066;-78
2022/06/10 07:07:52;;;;;;;6.43;4.88;;;;;;;;;;5090066;28;20044;-78
2022/06/10 07:10:20;;;;;;;7.47;4.25;;;;;;;;;;5072343;28;20395;-78
2022/06/10 07:12:47;;;;;;;10.38;5.10;;;;;;;;;;5080308;28;20043;-78
2022/06/10 07:15:13;;;;;;;6.95;4.22;;;;;;;;;;5077477;28;20106;-79
2022/06/10 07:17:39;;;;;;;6.72;4.63;;;;;;;;;;5076524;28;20555;-77
2022/06/10 07:20:06;;;;;;;7.85;4.55;;;;;;;;;;5076847;28;20040;-77
2022/06/10 07:22:32;;;;;;;8.07;4.72;;;;;;;;;;5082651;28;20131;-78
2022/06/10 07:24:58;;;;;;;7.50;4.28;;;;;;;;;;5084363;28;20128;-77
2022/06/10 07:27:25;;;;;;;7.00;4.10;;;;;;;;;;5067868;28;20462;-77
2022/06/10 07:29:51;;;;;;;8.45;4.00;;;;;;;;;;5078450;28;20621;-78
2022/06/10 07:32:17;;;;;;;4.90;3.40;;;;;;;;;;5065255;28;20074;-78
2022/06/10 07:34:43;;;;;;;7.07;3.67;;;;;;;;;;5086663;28;20081;-79
2022/06/10 07:37:09;;;;;;;5.95;3.33;;;;;;;;;;5084308;28;20089;-78
2022/06/10 07:39:36;;;;;;;6.75;3.72;;;;;;;;;;5086464;28;20040;-78
2022/06/10 07:42:02;;;;;;;6.18;3.58;;;;;;;;;;5065305;28;20139;-78
2022/06/10 07:44:30;;;;;;;5.93;3.30;;;;;;;;;;5084115;28;20495;-78
2022/06/10 07:46:57;;;;;;;9.10;3.65;;;;;;;;;;5064624;28;20504;-78
2022/06/10 07:49:24;;;;;;;5.93;3.38;;;;;;;;;;5066379;28;20139;-78
2022/06/10 07:51:50;;;;;;;5.85;3.60;;;;;;;;;;5086026;28;20461;-77
2022/06/10 07:54:16;;;;;;;5.40;3.42;;;;;;;;;;5085348;28;20048;-78
2022/06/10 07:56:42;;;;;;;6.50;3.80;;;;;;;;;;5085219;28;20111;-78
2022/06/10 07:59:08;;;;;;;5.47;3.72;;;;;;;;;;5067868;28;20101;-78
2022/06/10 08:01:35;;;;;;;5.53;3.60;;;;;;;;;;5067729;28;20159;-78
2022/06/10 08:04:01;;;;;;;5.57;3.85;;;;;;;;;;5076741;28;20064;-79
2022/06/10 08:06:28;;;;;;;6.70;4.13;;;;;;;;;;5066839;28;20082;-79
2022/06/10 08:08:55;;;;;;;7.05;3.97;;;;;;;;;;5088325;28;20429;-78
2022/06/10 08:11:21;;;;;;;5.53;4.00;;;;;;;;;;5084638;28;20494;-78
2022/06/10 08:13:47;;;;;;;7.05;5.25;;;;;;;;;;5086598;28;20048;-79
2022/06/10 08:16:14;;;;;;;5.88;5.07;;;;;;;;;;5084281;28;20036;-78
2022/06/10 08:18:40;;;;;;;9.77;5.70;;;;;;;;;;5069271;28;20049;-78
2022/06/10 08:23:51;;;;;;;6.28;5.28;;;;;;;;;;5062061;28;20483;-78
2022/06/10 08:26:17;;;;;;;8.98;5.70;;;;;;;;;;5060050;28;20127;-79
2022/06/10 08:28:46;;;;;;;8.35;5.70;;;;;;;;;;5060069;28;20147;-79
2022/06/10 08:31:13;;;;;;;8.70;6.50;;;;;;;;;;5039596;28;20049;-79
2022/06/10 08:33:39;;;;;;;9.82;6.95;;;;;;;;;;5046232;28;20049;-78
2022/06/10 08:36:06;;;;;;;12.40;9.15;;;;;;;;;;5033392;28;20029;-79
2022/06/10 08:38:32;;;;;;;12.98;9.40;;;;;;;;;;5034667;28;20512;-79
2022/06/10 08:41:04;;;;;;;11.65;9.38;;;;;;;;;;5042286;28;20052;-79
2022/06/10 08:43:40;;;;;;;15.30;9.55;;;;;;;;;;5037394;28;20045;-78
2022/06/10 08:46:15;;;;;;;17.75;9.40;;;;;;;;;;5041465;28;20041;-78
2022/06/10 08:49:00;;;;;;;14.32;8.60;;;;;;;;;;5044847;28;20488;-78
2022/06/10 08:51:28;;;;;;;11.65;7.55;;;;;;;;;;5045315;28;20047;-78
2022/06/10 08:53:58;;;;;;;12.20;7.20;;;;;;;;;;5048337;28;20048;-78
2022/06/10 08:56:50;;;;;;;11.55;7.50;;;;;;;;;;5042678;28;20060;-78
2022/06/10 08:59:37;;;;;;;11.40;7.72;;;;;;;;;;5037582;28;20067;-79
2022/06/10 09:02:09;;;;;;;12.13;7.75;;;;;;;;;;5043137;28;20053;-78
2022/06/10 09:04:58;;;;;;;10.57;8.27;;;;;;;;;;5044674;28;20052;-78
2022/06/10 09:07:31;;;;;;;14.57;7.85;;;;;;;;;;4998550;28;20053;-78
2022/06/10 09:09:58;;;;;;;12.30;7.60;;;;;;;;;;5046226;28;20055;-78
2022/06/10 09:12:28;;;;;;;9.15;6.78;;;;;;;;;;5042378;28;20048;-78
2022/06/10 09:14:57;;;;;;;13.05;7.30;;;;;;;;;;5040368;28;20484;-78
2022/06/10 09:17:30;;;;;;;11.50;7.18;;;;;;;;;;5038588;28;20059;-78
2022/06/10 09:19:56;;;;;;;12.15;7.32;;;;;;;;;;5045782;28;20049;-78
2022/06/10 09:22:38;;;;;;;15.23;7.93;;;;;;;;;;5041371;28;20570;-78
2022/06/10 09:25:04;;;;;;;14.63;7.35;;;;;;;;;;5043303;28;20033;-78
2022/06/10 09:27:32;;;;;;;14.05;7.38;;;;;;;;;;5035928;28;20040;-78
2022/06/10 09:30:02;;;;;;;14.38;7.25;;;;;;;;;;5076346;28;20052;-77
2022/06/10 09:32:44;;;;;;;10.00;6.53;;;;;;;;;;5085680;28;20531;-78
2022/06/10 09:35:16;;;;;;;13.80;6.97;;;;;;;;;;5062819;28;20051;-78
2022/06/10 09:37:54;;;;;;;15.60;7.68;;;;;;;;;;5073719;28;20043;-79
2022/06/10 09:40:36;;;;;;;14.20;7.43;;;;;;;;;;5059575;28;20045;-78
2022/06/10 09:43:21;;;;;;;11.93;6.93;;;;;;;;;;5083150;28;20068;-78
2022/06/10 09:46:04;;;;;;;12.60;7.05;;;;;;;;;;5082527;28;20513;-78
2022/06/10 09:48:30;;;;;;;;;;;;;;;;;;5088048;28;20124;-78
2022/06/10 09:51:05;;;;;;;10.23;5.43;;;;;;;;;;5081418;28;20212;-78
2022/06/10 09:53:51;;;;;;;13.55;5.75;;;;;;;;;;5088494;28;20047;-78
2022/06/10 09:56:20;;;;;;;11.98;5.65;;;;;;;;;;5088727;28;20539;-78
2022/06/10 09:59:02;;;;;;;8.35;5.03;;;;;;;;;;5088561;28;20434;-78
2022/06/10 10:01:28;;;;;;;7.80;4.45;;;;;;;;;;5069120;28;20036;-77
2022/06/10 10:04:13;;;;;;;8.45;4.78;;;;;;;;;;5071603;28;20078;-78
2022/06/10 10:06:39;;;;;;;8.68;4.43;;;;;;;;;;5086147;28;20079;-78
2022/06/10 10:09:17;;;;;;;8.55;4.50;;;;;;;;;;5089404;28;20076;-77
2022/06/10 10:12:01;;;;;;;8.63;4.60;;;;;;;;;;5061042;28;20052;-78
2022/06/10 10:14:43;;;;;;;8.93;4.65;;;;;;;;;;5076696;28;20040;-79
2022/06/10 10:17:12;;;;;;;8.55;4.57;;;;;;;;;;5085903;28;20044;-79
2022/06/10 10:19:59;;;;;;;9.90;4.82;;;;;;;;;;5089948;28;20044;-79
2022/06/10 10:22:33;;;;;;;10.30;4.78;;;;;;;;;;5067348;28;20067;-80
2022/06/10 10:24:59;;;;;;;9.27;5.13;;;;;;;;;;5083539;28;20040;-79
2022/06/10 10:27:33;;;;;;;10.15;4.85;;;;;;;;;;5069758;28;20036;-79
2022/06/10 10:30:06;;;;;;;9.35;5.00;;;;;;;;;;5083560;28;20052;-80
2022/06/10 10:32:35;;;;;;;7.40;4.47;;;;;;;;;;5060231;28;20488;-80
2022/06/10 10:35:08;;;;;;;11.45;5.32;;;;;;;;;;5090989;28;20044;-79
2022/06/10 10:37:36;;;;;;;8.68;4.88;;;;;;;;;;5076054;28;20209;-80
2022/06/10 10:40:06;;;;;;;8.88;5.10;;;;;;;;;;5090647;28;20181;-80
2022/06/10 10:42:36;;;;;;;7.05;4.70;;;;;;;;;;5071364;28;20480;-80
2022/06/10 10:45:05;;;;;;;11.32;5.60;;;;;;;;;;5087249;28;20101;-79
2022/06/10 10:47:31;;;;;;;9.25;5.60;;;;;;;;;;5068198;28;20157;-79
2022/06/10 10:50:30;;;;;;;8.40;5.05;;;;;;;;;;5082985;28;20048;-79
2022/06/10 10:52:57;;;;;;;12.15;5.25;;;;;;;;;;5054590;28;20059;-79
2022/06/10 10:55:26;;;;;;;8.40;4.85;;;;;;;;;;5089179;28;20101;-79
2022/06/10 10:58:05;;;;;;;9.27;4.75;;;;;;;;;;5070251;28;20048;-78
2022/06/10 11:00:43;;;;;;;7.05;4.53;;;;;;;;;;5054609;28;20131;-79
2022/06/10 11:03:23;;;;;;;10.85;5.03;;;;;;;;;;5076691;28;20086;-79
2022/06/10 11:05:49;;;;;;;8.60;4.65;;;;;;;;;;5060257;28;20047;-79
2022/06/10 11:08:34;;;;;;;8.63;4.85;;;;;;;;;;5065550;28;20045;-79
2022/06/10 11:11:15;;;;;;;11.77;5.32;;;;;;;;;;5070176;28;20036;-79
2022/06/10 11:13:44;;;;;;;7.88;5.40;;;;;;;;;;5086924;28;20040;-79
2022/06/10 11:16:29;;;;;;;12.23;6.60;;;;;;;;;;5084150;28;20032;-79
2022/06/10 11:19:03;;;;;;;8.90;6.88;;;;;;;;;;5093688;28;20044;-79
2022/06/10 11:21:29;;;;;;;9.48;6.53;;;;;;;;;;5077091;28;20063;-79
2022/06/10 11:23:57;;;;;;;10.45;7.65;;;;;;;;;;5063202;28;20038;-79
2022/06/10 11:26:25;;;;;;;10.52;7.68;;;;;;;;;;5083887;28;20167;-79
2022/06/10 11:28:59;;;;;;;11.43;8.43;;;;;;;;;;5068057;28;20567;-80
2022/06/10 11:31:35;;;;;;;10.30;8.52;;;;;;;;;;5090346;28;20049;-80
2022/06/10 11:34:01;;;;;;;11.13;8.50;;;;;;;;;;5057974;28;20035;-80
2022/06/10 11:36:29;;;;;;;11.55;8.80;;;;;;;;;;5071273;28;20054;-80
2022/06/10 11:39:12;;;;;;;10.18;8.52;;;;;;;;;;5071229;28;20045;-79
2022/06/10 11:41:38;;;;;;;11.73;7.57;;;;;;;;;;5089095;28;20037;-80
2022/06/10 11:44:07;;;;;;;8.48;7.00;;;;;;;;;;5082427;28;20043;-80
2022/06/10 11:46:47;;;;;;;11.50;8.70;;;;;;;;;;5068856;28;20044;-79
2022/06/10 11:49:18;;;;;;;10.75;7.40;;;;;;;;;;5089755;28;20066;-80
2022/06/10 11:51:44;;;;;;;9.05;6.15;;;;;;;;;;5055278;28;20453;-80
2022/06/10 11:54:10;;;;;;;7.32;4.63;;;;;;;;;;5063934;28;20044;-79
2022/06/10 11:59:42;;;;;;;6.00;4.32;;;;;;;;;;5055013;28;20048;-78
2022/06/10 12:02:11;;;;;;;5.40;3.80;;;;;;;;;;5087154;28;20120;-78
2022/06/10 12:04:41;;;;;;;6.53;3.58;;;;;;;;;;5054696;28;20052;-77
2022/06/10 12:07:13;;;;;;;7.32;3.42;;;;;;;;;;5072421;28;20124;-78
2022/06/10 12:09:41;;;;;;;6.07;3.15;;;;;;;;;;5091628;28;20051;-78
2022/06/10 12:12:13;;;;;;;6.90;3.30;;;;;;;;;;5088193;28;20047;-78
2022/06/10 12:14:42;;;;;;;11.68;3.75;;;;;;;;;;5055848;28;20063;-78
2022/06/10 12:17:29;;;;;;;8.98;3.33;;;;;;;;;;5065214;28;20056;-79
2022/06/10 12:19:57;;;;;;;9.50;4.05;;;;;;;;;;5072023;28;20047;-79
2022/06/10 12:22:26;;;;;;;8.05;3.50;;;;;;;;;;5086905;28;20127;-78
2022/06/10 12:24:52;;;;;;;9.40;3.72;;;;;;;;;;5055238;28;20049;-78
2022/06/10 12:27:24;;;;;;;7.72;3.60;;;;;;;;;;5063588;28;20049;-78
2022/06/10 12:30:09;;;;;;;9.57;4.10;;;;;;;;;;5055124;28;20071;-78
2022/06/10 12:32:46;;;;;;;9.77;3.90;;;;;;;;;;5081771;28;20036;-77
2022/06/10 12:35:18;;;;;;;9.27;4.10;;;;;;;;;;5089530;28;20124;-77
2022/06/10 12:37:47;;;;;;;9.03;4.10;;;;;;;;;;5085798;28;20055;-77
2022/06/10 12:40:16;;;;;;;13.15;4.57;;;;;;;;;;5066962;28;20048;-79
2022/06/10 12:42:55;;;;;;;6.45;3.45;;;;;;;;;;5072992;28;20131;-77
2022/06/10 12:45:21;;;;;;;9.48;4.10;;;;;;;;;;5071225;28;20131;-77
2022/06/10 12:47:47;;;;;;;8.57;3.80;;;;;;;;;;5062998;28;20052;-77
2022/06/10 12:50:19;;;;;;;11.90;4.40;;;;;;;;;;5080060;28;20040;-77
2022/06/10 12:53:04;;;;;;;8.65;3.92;;;;;;;;;;5089652;28;20040;-77
2022/06/10 12:55:37;;;;;;;8.48;4.28;;;;;;;;;;5075662;28;20102;-77
2022/06/10 12:58:04;;;;;;;10.45;3.92;;;;;;;;;;5082654;28;20078;-76
2022/06/10 13:00:38;;;;;;;8.32;4.13;;;;;;;;;;5084568;28;20055;-77
2022/06/10 13:03:13;;;;;;;9.43;4.35;;;;;;;;;;5087376;28;20117;-77
2022/06/10 13:05:39;;;;;;;9.30;4.47;;;;;;;;;;5092743;28;20047;-77
2022/06/10 13:08:26;;;;;;;10.05;4.65;;;;;;;;;;5082479;28;20122;-77
2022/06/10 13:10:56;;;;;;;10.23;4.40;;;;;;;;;;5063897;28;20089;-77
2022/06/10 13:13:23;;;;;;;11.60;4.90;;;;;;;;;;5085216;28;20447;-76
2022/06/10 13:15:51;;;;;;;10.32;4.95;;;;;;;;;;5089148;28;20051;-76
2022/06/10 13:18:27;;;;;;;10.43;4.72;;;;;;;;;;5083604;28;20044;-76
2022/06/10 13:20:53;;;;;;;11.80;4.65;;;;;;;;;;5088620;28;20052;-76
2022/06/10 13:23:27;;;;;;;8.77;4.30;;;;;;;;;;5060787;28;20483;-76
2022/06/10 13:25:53;;;;;;;11.13;4.65;;;;;;;;;;5051799;28;20056;-76
2022/06/10 13:28:22;;;;;;;10.88;4.40;;;;;;;;;;5050512;28;20633;-76
2022/06/10 13:30:49;;;;;;;9.55;4.22;;;;;;;;;;5072264;28;20044;-76
2022/06/10 13:33:17;;;;;;;8.98;4.65;;;;;;;;;;5074684;28;20514;-76
2022/06/10 13:35:46;;;;;;;10.02;4.85;;;;;;;;;;5054081;28;20167;-76
2022/06/10 13:38:29;;;;;;;11.60;4.90;;;;;;;;;;5072833;28;20063;-77
2022/06/10 13:41:48;;;;;;;11.82;5.03;;;;;;;;;;5072382;28;20048;-76
2022/06/10 13:43:44;;;;;;;11.73;4.47;;;;;;;;;;5055395;28;20049;-76
2022/06/10 13:46:15;;;;;;;11.68;4.40;;;;;;;;;;5071227;28;20049;-76
2022/06/10 13:48:41;;;;;;;9.82;4.15;;;;;;;;;;5072004;28;20769;-76
2022/06/10 13:51:26;;;;;;;11.25;4.57;;;;;;;;;;5086844;28;20188;-76
2022/06/10 13:54:03;;;;;;;9.82;4.53;;;;;;;;;;5068461;28;20491;-76
2022/06/10 13:56:36;;;;;;;13.10;4.72;;;;;;;;;;5067089;28;20051;-76
2022/06/10 13:59:03;;;;;;;10.35;4.43;;;;;;;;;;5072490;28;20047;-76
2022/06/10 14:01:31;;;;;;;8.75;3.88;;;;;;;;;;5070861;28;20048;-76
2022/06/10 14:04:10;;;;;;;11.95;4.30;;;;;;;;;;5064478;28;20516;-76
2022/06/10 14:06:43;;;;;;;8.68;4.15;;;;;;;;;;5074441;28;20054;-76
2022/06/10 14:09:18;;;;;;;11.35;4.30;;;;;;;;;;5073413;28;20101;-77
2022/06/10 14:11:45;;;;;;;9.93;4.22;;;;;;;;;;5070461;28;20110;-75
2022/06/10 14:14:11;;;;;;;10.55;4.55;;;;;;;;;;5071070;28;20101;-76
2022/06/10 14:16:37;;;;;;;8.10;4.00;;;;;;;;;;5067257;28;20044;-77
2022/06/10 14:19:11;;;;;;;10.90;4.60;;;;;;;;;;5078782;28;20029;-77
2022/06/10 14:21:41;;;;;;;12.65;4.43;;;;;;;;;;5071572;28;20040;-77
2022/06/10 14:24:21;;;;;;;15.15;4.82;;;;;;;;;;5080370;28;20475;-77
2022/06/10 14:26:56;;;;;;;12.85;4.50;;;;;;;;;;5073004;28;20047;-77
2022/06/10 14:29:24;;;;;;;8.07;3.80;;;;;;;;;;5070742;28;20064;-77
2022/06/10 14:31:57;;;;;;;10.48;4.05;;;;;;;;;;5059717;28;20531;-76
2022/06/10 14:34:24;;;;;;;10.90;4.13;;;;;;;;;;5068226;28;20454;-76
2022/06/10 14:36:57;;;;;;;10.35;4.57;;;;;;;;;;5070362;28;20048;-76
2022/06/10 14:39:26;;;;;;;9.80;4.13;;;;;;;;;;5064586;28;20048;-76
2022/06/10 14:41:57;;;;;;;8.27;3.53;;;;;;;;;;5081501;28;20050;-76
2022/06/10 14:44:24;;;;;;;8.40;3.88;;;;;;;;;;5081960;28;20048;-76
2022/06/10 14:47:08;;;;;;;8.90;3.65;;;;;;;;;;5081771;28;20029;-76
2022/06/10 14:49:46;;;;;;;8.82;3.53;;;;;;;;;;5057965;28;20046;-76
2022/06/10 14:52:16;;;;;;;9.32;3.58;;;;;;;;;;5073487;28;20131;-76
2022/06/10 14:54:42;;;;;;;6.80;3.30;;;;;;;;;;5097294;28;20079;-76
2022/06/10 14:57:17;;;;;;;8.20;3.10;;;;;;;;;;5078133;28;20049;-76
2022/06/10 14:59:43;;;;;;;5.97;3.03;;;;;;;;;;5067748;28;20564;-76
2022/06/10 15:02:10;;;;;;;5.25;2.47;;;;;;;;;;5068220;28;20183;-75
2022/06/10 15:04:36;;;;;;;6.75;2.95;;;;;;;;;;5088052;28;20122;-76
2022/06/10 15:07:02;;;;;;;6.57;3.08;;;;;;;;;;5098182;28;20459;-76
2022/06/10 15:09:28;;;;;;;7.43;3.13;;;;;;;;;;5083762;28;20044;-77
2022/06/10 15:11:56;;;;;;;10.15;3.33;;;;;;;;;;5062478;28;20047;-77